Time;durP1;ratioP1;P1;durP2;ratioP2;P2;SDS_P1;SDS_P2;PMS_P1;PMS_P2;Temp;Humidity;BMP_temperature;BMP_pressure;BME280_temperature;BME280_humidity;BME280_pressure;Samples;Min_cycle;Max_cycle;Signal;HPM_P1;HPM_P2
2022/12/08 00:02:12;;;;;;;20.25;12.63;;;;;;;2.47;100.00;101134.97;4807487;29;20133;-79
2022/12/08 00:09:20;;;;;;;16.35;11.48;;;;;;;2.46;100.00;101135.84;4806413;29;20030;-79
2022/12/08 00:10:08;;;;;;;18.38;13.10;;;;;;;2.42;100.00;101127.91;4807383;29;20039;-79
2022/12/08 00:12:34;;;;;;;15.93;12.77;;;;;;;2.40;100.00;101127.91;4807776;29;20080;-79
2022/12/08 00:14:59;;;;;;;17.65;12.18;;;;;;;2.43;100.00;101119.25;4808957;29;20047;-79
2022/12/08 00:17:25;;;;;;;17.08;12.70;;;;;;;2.43;100.00;101120.13;4825273;29;20083;-79
2022/12/08 00:19:50;;;;;;;20.88;13.35;;;;;;;2.44;100.00;101115.75;4809016;29;20122;-79
2022/12/08 00:22:16;;;;;;;22.85;12.50;;;;;;;2.43;100.00;101098.34;4809286;29;20026;-79
2022/12/08 00:24:43;;;;;;;15.30;12.65;;;;;;;2.40;100.00;101108.72;4793637;29;20530;-79
2022/12/08 00:27:11;;;;;;;18.83;13.57;;;;;;;2.40;100.00;101101.78;4809699;29;20030;-79
2022/12/08 00:29:37;;;;;;;15.20;11.82;;;;;;;2.39;100.00;101096.53;4824987;29;20105;-79
2022/12/08 00:32:03;;;;;;;16.63;12.23;;;;;;;2.42;100.00;101105.28;4817309;29;20037;-79
2022/12/08 00:34:30;;;;;;;21.27;13.57;;;;;;;2.40;100.00;101106.09;4824739;29;20130;-79
2022/12/08 00:36:55;;;;;;;21.50;13.02;;;;;;;2.41;100.00;101093.06;4808852;29;20392;-79
2022/12/08 00:39:21;;;;;;;18.13;13.02;;;;;;;2.40;100.00;101095.66;4808884;29;20042;-79
2022/12/08 00:44:30;;;;;;;18.00;12.05;;;;;;;2.36;100.00;101093.00;4824984;29;20047;-79
2022/12/08 00:46:56;;;;;;;16.17;12.82;;;;;;;2.36;100.00;101092.13;4808571;29;20413;-79
2022/12/08 00:49:22;;;;;;;17.58;12.65;;;;;;;2.39;100.00;101083.44;4824838;29;20460;-79
2022/12/08 00:51:47;;;;;;;15.98;11.68;;;;;;;2.40;100.00;101083.50;4808391;29;20117;-79
2022/12/08 00:54:13;;;;;;;18.95;13.30;;;;;;;2.41;100.00;101081.75;4824794;29;20054;-79
2022/12/08 00:56:39;;;;;;;18.25;11.00;;;;;;;2.43;100.00;101080.91;4808467;29;20054;-79
2022/12/08 00:59:05;;;;;;;16.65;11.18;;;;;;;2.42;100.00;101079.13;4822653;29;20355;-79
2022/12/08 01:01:31;;;;;;;18.23;12.02;;;;;;;2.44;100.00;101076.56;4808551;29;20042;-79
2022/12/08 01:04:01;;;;;;;17.05;12.73;;;;;;;2.45;100.00;101067.84;4824490;29;20376;-79
2022/12/08 01:06:26;;;;;;;17.35;11.20;;;;;;;2.43;100.00;101060.00;4824722;29;20113;-79
2022/12/08 01:08:52;;;;;;;19.38;11.80;;;;;;;2.47;100.00;101066.13;4824341;29;20055;-79
2022/12/08 01:11:18;;;;;;;18.05;10.70;;;;;;;2.46;100.00;101062.66;4824773;29;20050;-79
2022/12/08 01:13:44;;;;;;;14.77;11.48;;;;;;;2.47;100.00;101067.00;4824471;29;20046;-79
2022/12/08 01:16:21;;;;;;;17.75;12.70;;;;;;;2.48;100.00;101066.16;4824055;29;20137;-79
2022/12/08 01:18:47;;;;;;;19.00;12.00;;;;;;;2.47;100.00;101064.41;4807992;29;20095;-79
2022/12/08 01:21:13;;;;;;;19.02;13.25;;;;;;;2.47;100.00;101066.13;4824304;29;20042;-79
2022/12/08 01:23:38;;;;;;;16.42;11.25;;;;;;;2.48;100.00;101066.16;4807996;29;20054;-79
2022/12/08 01:26:06;;;;;;;17.52;11.70;;;;;;;2.48;100.00;101065.31;4824255;29;20030;-78
2022/12/08 01:28:31;;;;;;;17.20;11.30;;;;;;;2.48;100.00;101066.16;4824519;29;20045;-79
2022/12/08 01:30:58;;;;;;;14.15;10.63;;;;;;;2.47;100.00;101063.53;4815840;29;20035;-79
2022/12/08 01:33:24;;;;;;;13.07;9.82;;;;;;;2.48;100.00;101058.34;4808096;29;20110;-79
2022/12/08 01:35:51;;;;;;;16.13;11.15;;;;;;;2.49;100.00;101064.44;4792779;29;20125;-79
2022/12/08 01:38:16;;;;;;;17.95;10.90;;;;;;;2.50;100.00;101053.13;4807366;29;20471;-79
2022/12/08 01:40:42;;;;;;;17.75;11.38;;;;;;;2.51;100.00;101058.38;4824163;29;20117;-79
2022/12/08 01:43:16;;;;;;;17.13;11.05;;;;;;;2.51;100.00;101058.38;4823969;29;20038;-79
2022/12/08 01:45:42;;;;;;;15.50;10.63;;;;;;;2.52;100.00;101051.41;4794776;29;20114;-79
2022/12/08 01:48:13;;;;;;;13.48;9.30;;;;;;;2.52;100.00;101051.41;4807262;29;20503;-78
2022/12/08 01:50:41;;;;;;;13.32;9.57;;;;;;;2.54;100.00;101052.31;4823793;29;20046;-78
2022/12/08 01:53:11;;;;;;;16.92;11.30;;;;;;;2.53;100.00;101045.34;4822892;29;20105;-79
2022/12/08 01:55:51;;;;;;;12.48;8.82;;;;;;;2.55;100.00;101041.88;4798453;29;20416;-79
2022/12/08 01:58:23;;;;;;;12.85;9.35;;;;;;;2.54;100.00;101040.09;4823230;29;20046;-79
2022/12/08 02:00:49;;;;;;;15.10;9.15;;;;;;;2.53;100.00;101033.13;4812026;29;20042;-79
2022/12/08 02:03:22;;;;;;;15.57;10.00;;;;;;;2.53;100.00;101021.81;4806483;29;20443;-79
2022/12/08 02:05:48;;;;;;;13.02;9.48;;;;;;;2.53;100.00;101027.91;4806102;29;20046;-79
2022/12/08 02:08:13;;;;;;;17.60;9.50;;;;;;;2.52;100.00;101020.94;4823151;29;20031;-79
2022/12/08 02:10:41;;;;;;;13.18;9.52;;;;;;;2.53;100.00;101027.91;4791046;29;20060;-79
2022/12/08 02:13:14;;;;;;;11.93;8.63;;;;;;;2.52;100.00;101020.03;4791335;29;20052;-79
2022/12/08 02:15:48;;;;;;;13.48;9.52;;;;;;;2.52;100.00;101017.41;4822557;29;20077;-79
2022/12/08 02:18:23;;;;;;;11.57;8.93;;;;;;;2.52;100.00;101010.47;4806231;29;20050;-79
2022/12/08 02:21:02;;;;;;;10.93;8.38;;;;;;;2.49;100.00;101010.41;4806077;29;20070;-79
2022/12/08 02:23:40;;;;;;;11.32;8.63;;;;;;;2.50;100.00;101016.53;4822836;29;20042;-79
2022/12/08 02:26:27;;;;;;;13.68;8.88;;;;;;;2.50;100.00;101013.94;4822835;29;20065;-79
2022/12/08 02:29:36;;;;;;;11.48;8.23;;;;;;;2.49;100.00;101002.56;4806095;29;20401;-79
2022/12/08 02:32:20;;;;;;;11.30;7.78;;;;;;;2.49;100.00;100992.09;4811445;29;20121;-79
2022/12/08 02:35:00;;;;;;;12.35;8.82;;;;;;;2.48;100.00;100986.88;4805724;29;20045;-79
2022/12/08 02:37:36;;;;;;;12.90;8.57;;;;;;;2.49;100.00;100989.50;4822762;29;20444;-79
2022/12/08 02:40:30;;;;;;;13.52;8.07;;;;;;;2.51;100.00;100986.91;4805510;29;20480;-79
2022/12/08 02:43:02;;;;;;;10.82;7.82;;;;;;;2.47;100.00;100977.25;4822534;29;20069;-79
2022/12/08 02:45:58;;;;;;;10.18;7.00;;;;;;;2.51;100.00;100981.69;4805603;29;20266;-79
2022/12/08 02:48:27;;;;;;;11.90;7.55;;;;;;;2.48;100.00;100977.28;4819122;29;20046;-79
2022/12/08 02:50:52;;;;;;;9.07;6.60;;;;;;;2.51;100.00;100976.47;4805789;29;20049;-79
2022/12/08 02:53:18;;;;;;;10.50;7.30;;;;;;;2.50;100.00;100970.34;4805681;29;20035;-79
2022/12/08 02:56:15;;;;;;;9.45;7.57;;;;;;;2.50;100.00;100962.50;4820315;29;20402;-79
2022/12/08 02:58:50;;;;;;;10.00;7.57;;;;;;;2.51;100.00;100966.00;4820506;29;20038;-79
2022/12/08 03:01:23;;;;;;;13.23;7.65;;;;;;;2.50;100.00;100965.13;4805663;29;20071;-79
2022/12/08 03:04:04;;;;;;;12.68;7.20;;;;;;;2.49;100.00;100976.44;4822325;29;20042;-79
2022/12/08 03:06:40;;;;;;;9.98;6.15;;;;;;;2.47;100.00;100978.13;4829648;29;20145;-79
2022/12/08 03:09:14;;;;;;;9.13;5.85;;;;;;;2.50;100.00;100974.72;4820119;29;20534;-78
2022/12/08 03:12:03;;;;;;;10.10;5.65;;;;;;;2.50;100.00;100975.59;4816988;29;20492;-78
2022/12/08 03:14:30;;;;;;;8.98;6.25;;;;;;;2.52;100.00;100972.97;4830280;29;20054;-78
2022/12/08 03:16:57;;;;;;;8.52;5.60;;;;;;;2.52;100.00;100965.13;4827162;29;20058;-78
2022/12/08 03:19:31;;;;;;;8.85;5.78;;;;;;;2.52;100.00;100968.66;4823378;29;20045;-78
2022/12/08 03:22:02;;;;;;;9.68;5.47;;;;;;;2.55;100.00;100963.44;4839739;29;20054;-78
2022/12/08 03:24:39;;;;;;;7.85;5.53;;;;;;;2.56;100.00;100954.72;4816598;29;20042;-78
2022/12/08 03:27:08;;;;;;;7.85;5.00;;;;;;;2.56;100.00;100939.06;4835525;29;20046;-78
2022/12/08 03:29:34;;;;;;;7.15;4.82;;;;;;;2.59;100.00;100949.53;4832941;29;20023;-78
2022/12/08 03:32:15;;;;;;;6.22;4.80;;;;;;;2.59;100.00;100949.53;4817699;29;20392;-75
2022/12/08 03:34:43;;;;;;;6.95;4.75;;;;;;;2.58;100.00;100933.84;4817282;29;20038;-75
2022/12/08 03:37:08;;;;;;;8.35;4.97;;;;;;;2.57;100.00;100929.47;4839900;29;20032;-75
2022/12/08 03:39:34;;;;;;;8.48;4.57;;;;;;;2.57;100.00;100922.53;4839416;29;20038;-76
2022/12/08 03:41:59;;;;;;;8.45;5.18;;;;;;;2.56;100.00;100923.38;4813150;29;20039;-76
2022/12/08 03:44:25;;;;;;;6.80;4.78;;;;;;;2.59;100.00;100927.75;4824373;29;20037;-76
2022/12/08 03:46:50;;;;;;;7.75;5.00;;;;;;;2.58;100.00;100920.78;4839786;29;20479;-76
2022/12/08 03:49:15;;;;;;;7.47;5.32;;;;;;;2.58;100.00;100919.03;4808487;29;20115;-76
2022/12/08 03:51:41;;;;;;;9.98;5.30;;;;;;;2.58;100.00;100926.00;4828063;29;20416;-76
2022/12/08 03:54:06;;;;;;;8.40;5.57;;;;;;;2.57;100.00;100919.91;4794668;29;20137;-76
2022/12/08 03:56:35;;;;;;;10.00;5.47;;;;;;;2.56;100.00;100912.03;4827866;29;20410;-76
2022/12/08 03:59:00;;;;;;;10.00;5.63;;;;;;;2.64;100.00;100909.50;4840050;29;20045;-76
2022/12/08 04:01:26;;;;;;;10.80;6.65;;;;;;;2.62;100.00;100904.28;4799644;29;20401;-76
2022/12/08 04:03:53;;;;;;;11.55;7.75;;;;;;;2.65;100.00;100906.06;4831230;29;20499;-75
2022/12/08 04:06:19;;;;;;;12.73;7.63;;;;;;;2.59;100.00;100905.09;4806151;29;20395;-76
2022/12/08 04:08:45;;;;;;;11.63;8.75;;;;;;;2.62;100.00;100908.59;4818060;29;20054;-76
2022/12/08 04:11:11;;;;;;;14.73;8.02;;;;;;;2.61;100.00;100905.13;4824641;29;20041;-75
2022/12/08 04:13:39;;;;;;;17.33;10.38;;;;;;;2.60;100.00;100900.75;4797226;29;20177;-75
2022/12/08 04:16:06;;;;;;;12.30;9.32;;;;;;;2.63;100.00;100894.69;4816219;29;20096;-76
2022/12/08 04:18:33;;;;;;;12.65;7.80;;;;;;;2.65;100.00;100886.00;4840196;29;20141;-75
2022/12/08 04:20:59;;;;;;;15.18;11.65;;;;;;;2.62;100.00;100891.22;4834434;29;20098;-76
2022/12/08 04:23:24;;;;;;;15.27;10.80;;;;;;;2.63;100.00;100884.25;4821116;29;20412;-76
2022/12/08 04:25:51;;;;;;;15.48;11.65;;;;;;;2.63;100.00;100879.88;4830658;29;20530;-76
2022/12/08 04:28:17;;;;;;;16.90;12.40;;;;;;;2.67;100.00;100886.00;4843045;29;20034;-76
2022/12/08 04:30:42;;;;;;;16.38;11.13;;;;;;;2.68;100.00;100891.25;4829586;29;20379;-76
2022/12/08 04:33:08;;;;;;;16.48;10.95;;;;;;;2.66;100.00;100882.53;4842991;29;20106;-76
2022/12/08 04:35:33;;;;;;;17.45;11.90;;;;;;;2.67;100.00;100886.00;4829523;29;20042;-76
2022/12/08 04:37:59;;;;;;;16.38;12.75;;;;;;;2.67;100.00;100896.47;4834493;29;20038;-77
2022/12/08 04:40:24;;;;;;;17.73;10.88;;;;;;;2.68;100.00;100898.25;4821766;29;20125;-76
2022/12/08 04:42:50;;;;;;;16.75;11.48;;;;;;;2.67;100.00;100902.59;4820112;29;20046;-76
2022/12/08 04:45:15;;;;;;;16.95;12.45;;;;;;;2.66;100.00;100886.88;4835918;29;20049;-76
2022/12/08 04:47:41;;;;;;;18.88;12.88;;;;;;;2.67;100.00;100883.38;4837692;29;20040;-76
2022/12/08 04:50:07;;;;;;;16.58;12.25;;;;;;;2.67;100.00;100884.28;4807311;29;20066;-75
2022/12/08 04:52:33;;;;;;;18.48;12.82;;;;;;;2.71;100.00;100877.34;4810269;29;20082;-75
2022/12/08 04:54:59;;;;;;;17.80;12.45;;;;;;;2.68;100.00;100875.56;4832214;29;20038;-75
2022/12/08 04:57:24;;;;;;;17.67;12.57;;;;;;;2.71;100.00;100886.06;4809431;29;20446;-76
2022/12/08 04:59:50;;;;;;;14.63;11.63;;;;;;;2.70;100.00;100888.69;4806668;29;20042;-76
2022/12/08 05:02:15;;;;;;;18.00;12.35;;;;;;;2.68;100.00;100887.78;4825925;29;20525;-76
2022/12/08 05:04:41;;;;;;;16.00;11.48;;;;;;;2.69;100.00;100893.00;4835365;29;20057;-75
2022/12/08 05:07:06;;;;;;;17.63;12.05;;;;;;;2.68;100.00;100893.00;4838955;29;20075;-75
2022/12/08 05:09:32;;;;;;;19.02;11.88;;;;;;;2.68;100.00;100896.50;4818221;29;20030;-75
2022/12/08 05:11:57;;;;;;;19.65;12.45;;;;;;;2.69;100.00;100894.75;4839769;29;20038;-75
2022/12/08 05:14:23;;;;;;;15.00;11.13;;;;;;;2.67;100.00;100889.53;4805897;29;20045;-75
2022/12/08 05:16:49;;;;;;;16.65;11.15;;;;;;;2.65;100.00;100896.47;4821164;29;20074;-76
2022/12/08 05:19:15;;;;;;;12.13;8.38;;;;;;;2.60;100.00;100892.94;4812484;29;20030;-77
2022/12/08 05:21:41;;;;;;;8.23;6.28;;;;;;;2.58;100.00;100895.50;4820716;29;20133;-76
2022/12/08 05:24:06;;;;;;;12.32;8.02;;;;;;;2.51;100.00;100888.44;4817070;29;20046;-75
2022/12/08 05:26:32;;;;;;;8.80;6.72;;;;;;;2.51;100.00;100887.56;4819116;29;20058;-78
2022/12/08 05:28:57;;;;;;;10.13;5.72;;;;;;;2.47;100.00;100886.66;4809614;29;20026;-78
2022/12/08 05:31:23;;;;;;;7.78;5.45;;;;;;;2.43;100.00;100884.00;4819940;29;20464;-78
2022/12/08 05:33:52;;;;;;;10.52;6.35;;;;;;;2.41;100.00;100883.97;4815884;29;20376;-78
2022/12/08 05:36:18;;;;;;;9.18;5.38;;;;;;;2.43;100.00;100887.50;4822257;29;20516;-78
2022/12/08 05:38:56;;;;;;;6.43;4.72;;;;;;;2.41;100.00;100875.25;4807946;29;20517;-78
2022/12/08 05:41:21;;;;;;;7.65;4.32;;;;;;;2.37;100.00;100871.72;4803727;29;20049;-78
2022/12/08 05:43:47;;;;;;;6.63;4.15;;;;;;;2.38;100.00;100870.00;4817618;29;20027;-78
2022/12/08 05:46:13;;;;;;;5.63;3.83;;;;;;;2.35;100.00;100861.25;4820222;29;20120;-78
2022/12/08 05:48:39;;;;;;;6.72;3.97;;;;;;;2.33;100.00;100867.34;4803529;29;20028;-78
2022/12/08 05:51:18;;;;;;;7.13;3.85;;;;;;;2.34;100.00;100863.84;4809807;29;20046;-78
2022/12/08 05:53:44;;;;;;;6.32;3.63;;;;;;;2.33;100.00;100860.38;4802792;29;20224;-78
2022/12/08 05:56:10;;;;;;;6.93;2.95;;;;;;;2.31;100.00;100855.97;4805157;29;20026;-78
2022/12/08 05:58:35;;;;;;;6.22;3.30;;;;;;;2.31;100.00;100866.44;4818215;29;20058;-78
2022/12/08 06:01:02;;;;;;;5.22;2.90;;;;;;;2.32;100.00;100863.81;4814948;29;20050;-78
2022/12/08 06:03:27;;;;;;;4.25;3.13;;;;;;;2.34;100.00;100856.00;4807653;29;20054;-78
2022/12/08 06:05:53;;;;;;;5.28;3.30;;;;;;;2.32;100.00;100865.56;4796679;29;20392;-78
2022/12/08 06:08:18;;;;;;;7.15;3.50;;;;;;;2.34;100.00;100859.50;4795076;29;20034;-79
2022/12/08 06:10:44;;;;;;;6.88;3.33;;;;;;;2.32;100.00;100853.38;4799790;29;20176;-79
2022/12/08 06:13:10;;;;;;;3.80;2.97;;;;;;;2.32;100.00;100849.88;4816036;29;20467;-79
2022/12/08 06:15:37;;;;;;;7.75;3.00;;;;;;;2.32;100.00;100849.88;4802688;29;20042;-79
2022/12/08 06:18:04;;;;;;;5.07;3.55;;;;;;;2.31;100.00;100849.00;4812803;29;20046;-79
2022/12/08 06:20:29;;;;;;;5.80;2.75;;;;;;;2.34;100.00;100853.41;4804416;29;20437;-79
2022/12/08 06:22:55;;;;;;;6.38;3.50;;;;;;;2.32;100.00;100844.66;4804190;29;20079;-79
2022/12/08 06:25:21;;;;;;;7.85;3.42;;;;;;;2.34;100.00;100843.81;4803385;29;20027;-79
2022/12/08 06:27:46;;;;;;;6.90;3.17;;;;;;;2.38;100.00;100846.50;4793910;29;20089;-78
2022/12/08 06:30:12;;;;;;;10.00;3.42;;;;;;;2.38;100.00;100846.50;4787468;29;20083;-80
2022/12/08 06:32:38;;;;;;;8.70;2.83;;;;;;;2.38;100.00;100836.91;4800250;29;20404;-78
2022/12/08 06:35:03;;;;;;;4.68;3.03;;;;;;;2.40;100.00;100829.06;4786045;29;20070;-78
2022/12/08 06:37:29;;;;;;;4.43;2.72;;;;;;;2.41;100.00;100841.28;4804315;29;20047;-78
2022/12/08 06:39:55;;;;;;;6.22;3.03;;;;;;;2.42;100.00;100837.81;4784450;29;20043;-78
2022/12/08 06:45:06;;;;;;;4.10;2.20;;;;;;;2.42;100.00;100843.03;4787023;29;20050;-76
2022/12/08 06:47:35;;;;;;;6.15;3.00;;;;;;;2.41;100.00;100844.78;4787433;29;20456;-76
2022/12/08 06:50:00;;;;;;;5.65;2.80;;;;;;;2.40;100.00;100850.88;4787900;29;20046;-76
2022/12/08 06:52:27;;;;;;;5.57;2.70;;;;;;;2.41;100.00;100846.50;4795116;29;20400;-76
2022/12/08 06:54:53;;;;;;;9.52;2.70;;;;;;;2.44;100.00;100850.03;4773220;29;20027;-76
2022/12/08 06:57:18;;;;;;;6.88;2.92;;;;;;;2.45;100.00;100848.28;4802359;29;20109;-75
2022/12/08 06:59:44;;;;;;;4.80;2.67;;;;;;;2.45;100.00;100838.72;4799396;29;20024;-76
2022/12/08 07:02:10;;;;;;;4.10;2.60;;;;;;;2.46;100.00;100839.59;4796719;29;20123;-76
2022/12/08 07:04:35;;;;;;;8.13;3.30;;;;;;;2.45;100.00;100832.59;4802003;29;20360;-75
2022/12/08 07:07:01;;;;;;;6.57;2.70;;;;;;;2.46;100.00;100837.84;4800830;29;20049;-75
2022/12/08 07:09:27;;;;;;;5.47;2.90;;;;;;;2.46;100.00;100842.22;4789225;29;20465;-76
2022/12/08 07:11:52;;;;;;;6.25;2.40;;;;;;;2.45;100.00;100830.88;4804515;29;20096;-76
2022/12/08 07:14:22;;;;;;;4.25;2.50;;;;;;;2.45;100.00;100843.97;4801785;29;20023;-75
2022/12/08 07:16:47;;;;;;;6.80;2.70;;;;;;;2.43;100.00;100839.56;4813723;29;20471;-76
2022/12/08 07:19:13;;;;;;;3.50;2.30;;;;;;;2.43;100.00;100836.97;4804715;29;20152;-78
2022/12/08 07:21:39;;;;;;;6.30;2.58;;;;;;;2.43;100.00;100844.81;4826769;29;20061;-78
2022/12/08 07:24:04;;;;;;;3.15;2.45;;;;;;;2.42;100.00;100846.50;4803372;29;20504;-78
2022/12/08 07:26:30;;;;;;;5.25;2.83;;;;;;;2.41;100.00;100847.38;4798856;29;20058;-78
2022/12/08 07:28:55;;;;;;;7.78;3.88;;;;;;;2.41;100.00;100847.38;4822429;29;20521;-78
2022/12/08 07:31:23;;;;;;;7.38;3.40;;;;;;;2.41;100.00;100838.66;4805791;29;20042;-78
2022/12/08 07:33:50;;;;;;;5.50;2.88;;;;;;;2.42;100.00;100843.91;4805989;29;20026;-79
2022/12/08 07:36:16;;;;;;;7.53;3.42;;;;;;;2.42;100.00;100851.75;4805666;29;20100;-79
2022/12/08 07:38:42;;;;;;;4.63;3.35;;;;;;;2.43;100.00;100840.44;4790202;29;20073;-79
2022/12/08 07:41:16;;;;;;;9.40;3.15;;;;;;;2.46;100.00;100847.44;4822215;29;20409;-79
2022/12/08 07:43:42;;;;;;;10.98;3.53;;;;;;;2.45;100.00;100840.44;4826992;29;20043;-79
2022/12/08 07:46:10;;;;;;;6.85;3.58;;;;;;;2.46;100.00;100842.22;4807708;29;20038;-79
2022/12/08 07:48:36;;;;;;;6.35;3.67;;;;;;;2.47;100.00;100844.81;4806466;29;20058;-78
2022/12/08 07:51:03;;;;;;;9.43;4.50;;;;;;;2.49;100.00;100850.94;4807853;29;20052;-78
2022/12/08 07:53:31;;;;;;;10.43;4.65;;;;;;;2.47;100.00;100855.28;4819310;29;20035;-79
2022/12/08 07:55:58;;;;;;;6.53;4.15;;;;;;;2.43;100.00;100863.09;4823823;29;20087;-78
2022/12/08 07:58:24;;;;;;;5.35;3.88;;;;;;;2.36;100.00;100852.56;4825075;29;20455;-78
2022/12/08 08:00:50;;;;;;;8.20;3.90;;;;;;;2.34;100.00;100856.00;4825341;29;20030;-78
2022/12/08 08:03:16;;;;;;;7.38;4.47;;;;;;;2.31;100.00;100856.84;4809293;29;20495;-78
2022/12/08 08:05:42;;;;;;;6.65;4.38;;;;;;;2.31;100.00;100845.53;4824903;29;20048;-79
2022/12/08 08:08:09;;;;;;;6.10;4.20;;;;;;;2.30;100.00;100852.50;4826002;29;20042;-77
2022/12/08 08:10:34;;;;;;;9.00;5.00;;;;;;;2.30;100.00;100846.38;4806391;29;20128;-78
2022/12/08 08:13:01;;;;;;;5.30;4.28;;;;;;;2.33;100.00;100851.66;4789803;29;20117;-79
2022/12/08 08:15:29;;;;;;;6.80;4.90;;;;;;;2.34;100.00;100864.72;4822225;29;20092;-79
2022/12/08 08:17:55;;;;;;;5.40;4.13;;;;;;;2.34;100.00;100856.00;4811521;29;20060;-78
2022/12/08 08:20:20;;;;;;;6.97;3.85;;;;;;;2.34;100.00;100861.25;4809968;29;20038;-79
2022/12/08 08:22:47;;;;;;;10.25;3.83;;;;;;;2.34;100.00;100861.25;4793743;29;20054;-79
2022/12/08 08:25:14;;;;;;;7.10;3.40;;;;;;;2.32;100.00;100862.94;4824311;29;20068;-77
2022/12/08 08:27:39;;;;;;;5.22;3.60;;;;;;;2.30;100.00;100854.22;4824875;29;20053;-79
2022/12/08 08:30:06;;;;;;;5.68;3.80;;;;;;;2.31;100.00;100864.69;4793148;29;20031;-79
2022/12/08 08:32:33;;;;;;;5.35;3.85;;;;;;;2.32;100.00;100868.19;4824922;29;20110;-79
2022/12/08 08:34:59;;;;;;;7.30;4.50;;;;;;;2.31;100.00;100853.38;4824472;29;20510;-79
2022/12/08 08:37:25;;;;;;;8.90;4.10;;;;;;;2.31;100.00;100862.06;4817488;29;20458;-79
2022/12/08 08:39:50;;;;;;;7.38;5.50;;;;;;;2.33;100.00;100862.97;4824817;29;20145;-79
2022/12/08 08:42:16;;;;;;;5.20;4.47;;;;;;;2.34;100.00;100861.25;4824712;29;20129;-79
2022/12/08 08:44:42;;;;;;;6.10;4.22;;;;;;;2.34;100.00;100866.47;4824399;29;20047;-79
2022/12/08 08:47:07;;;;;;;7.05;4.35;;;;;;;2.32;100.00;100857.72;4808105;29;20049;-78
2022/12/08 08:49:32;;;;;;;5.82;4.10;;;;;;;2.33;100.00;100860.38;4792743;29;20169;-79
2022/12/08 08:51:58;;;;;;;8.02;4.57;;;;;;;2.34;100.00;100861.25;4824514;29;20053;-79
2022/12/08 08:54:24;;;;;;;5.18;4.60;;;;;;;2.34;100.00;100863.84;4830106;29;20031;-79
2022/12/08 08:56:49;;;;;;;6.53;4.63;;;;;;;2.33;100.00;100865.59;4808031;29;20078;-79
2022/12/08 08:59:15;;;;;;;6.75;4.80;;;;;;;2.34;100.00;100867.34;4833631;29;20037;-78
2022/12/08 09:01:40;;;;;;;4.80;4.05;;;;;;;2.31;100.00;100866.44;4807693;29;20038;-79
2022/12/08 09:04:06;;;;;;;5.03;3.95;;;;;;;2.31;100.00;100864.69;4807877;29;20538;-79
2022/12/08 09:06:31;;;;;;;5.45;3.65;;;;;;;2.30;100.00;100867.28;4833729;29;20022;-79
2022/12/08 09:08:57;;;;;;;6.93;4.25;;;;;;;2.27;100.00;100860.28;4807746;29;20098;-80
2022/12/08 09:11:23;;;;;;;7.38;3.65;;;;;;;2.24;100.00;100855.03;4817215;29;20034;-79
2022/12/08 09:13:50;;;;;;;6.97;3.80;;;;;;;2.27;100.00;100857.66;4796634;29;20174;-79
2022/12/08 09:16:16;;;;;;;6.82;3.47;;;;;;;2.27;100.00;100854.19;4824063;29;20090;-79
2022/12/08 09:18:42;;;;;;;4.07;3.53;;;;;;;2.24;100.00;100849.78;4807488;29;20137;-79
2022/12/08 09:21:15;;;;;;;5.80;2.80;;;;;;;2.29;100.00;100853.34;4823922;29;20129;-78
2022/12/08 09:23:42;;;;;;;4.82;3.20;;;;;;;2.27;100.00;100847.22;4805084;29;20110;-80
2022/12/08 09:26:08;;;;;;;4.95;3.05;;;;;;;2.35;100.00;100850.81;4815614;29;20475;-80
2022/12/08 09:28:34;;;;;;;5.68;3.10;;;;;;;2.37;100.00;100845.59;4840593;29;20101;-80
2022/12/08 09:31:00;;;;;;;3.90;3.10;;;;;;;2.37;100.00;100850.81;4814128;29;20129;-80
2022/12/08 09:33:26;;;;;;;6.68;3.10;;;;;;;2.37;100.00;100845.59;4813050;29;20030;-80
2022/12/08 09:35:51;;;;;;;7.80;3.70;;;;;;;2.42;100.00;100846.50;4828398;29;20045;-80
2022/12/08 09:38:17;;;;;;;6.20;2.60;;;;;;;2.43;100.00;100845.66;4842246;29;20151;-80
2022/12/08 09:40:53;;;;;;;4.70;2.70;;;;;;;2.45;100.00;100850.91;4812328;29;20069;-80
2022/12/08 09:43:50;;;;;;;7.05;3.55;;;;;;;2.47;100.00;100842.22;4815552;29;20061;-81
2022/12/08 09:46:18;;;;;;;7.43;4.00;;;;;;;2.45;100.00;100837.81;4817184;29;20182;-80
2022/12/08 09:48:54;;;;;;;8.05;3.83;;;;;;;2.45;100.00;100841.34;4829481;29;20026;-80
2022/12/08 09:51:26;;;;;;;6.85;3.53;;;;;;;2.45;100.00;100840.44;4818087;29;20538;-80
2022/12/08 09:54:06;;;;;;;7.68;3.90;;;;;;;2.46;100.00;100842.22;4816265;29;20042;-78
2022/12/08 09:56:35;;;;;;;7.43;3.50;;;;;;;2.43;100.00;100840.44;4806198;29;20046;-79
2022/12/08 09:59:19;;;;;;;5.85;3.60;;;;;;;2.48;100.00;100848.34;4817874;29;20368;-79
2022/12/08 10:01:45;;;;;;;7.60;2.90;;;;;;;2.48;100.00;100841.38;4823387;29;20510;-79
2022/12/08 10:04:25;;;;;;;7.45;3.08;;;;;;;2.47;100.00;100842.22;4816213;29;20053;-79
2022/12/08 10:07:04;;;;;;;5.93;2.97;;;;;;;2.49;100.00;100835.28;4806451;29;20043;-79
2022/12/08 10:09:48;;;;;;;7.82;3.58;;;;;;;2.48;100.00;100838.75;4819775;29;20087;-79
2022/12/08 10:12:23;;;;;;;8.75;3.08;;;;;;;2.46;100.00;100835.25;4806916;29;20046;-79
2022/12/08 10:15:18;;;;;;;4.60;2.58;;;;;;;2.45;100.00;100838.72;4806693;29;20042;-79
2022/12/08 10:17:53;;;;;;;5.55;2.80;;;;;;;2.46;100.00;100835.25;4824688;29;20098;-79
2022/12/08 10:20:28;;;;;;;5.90;2.80;;;;;;;2.44;100.00;100834.34;4806807;29;20053;-79
2022/12/08 10:23:08;;;;;;;6.95;2.80;;;;;;;2.48;100.00;100840.50;4832687;29;20069;-78
2022/12/08 10:25:53;;;;;;;5.97;2.78;;;;;;;2.46;100.00;100831.75;4828824;29;20045;-78
2022/12/08 10:28:19;;;;;;;4.35;2.55;;;;;;;2.44;100.00;100834.34;4829120;29;20075;-78
2022/12/08 10:30:45;;;;;;;7.53;3.03;;;;;;;2.43;100.00;100830.00;4810207;29;20058;-77
2022/12/08 10:33:16;;;;;;;6.28;2.85;;;;;;;2.47;100.00;100831.75;4819429;29;20038;-78
2022/12/08 10:35:48;;;;;;;5.43;3.40;;;;;;;2.48;100.00;100828.31;4825135;29;20084;-78
2022/12/08 10:38:21;;;;;;;7.32;2.83;;;;;;;2.50;100.00;100829.19;4824417;29;20049;-78
2022/12/08 10:40:48;;;;;;;8.10;3.30;;;;;;;2.47;100.00;100815.19;4835434;29;20099;-78
2022/12/08 10:43:19;;;;;;;7.15;2.80;;;;;;;2.49;100.00;100814.34;4811809;29;20030;-78
2022/12/08 10:45:45;;;;;;;7.13;2.80;;;;;;;2.50;100.00;100813.50;4809207;29;20059;-78
2022/12/08 10:48:27;;;;;;;8.20;3.00;;;;;;;2.56;100.00;100818.78;4823801;29;20034;-78
2022/12/08 10:50:55;;;;;;;7.13;2.95;;;;;;;2.57;100.00;100815.34;4819427;29;20038;-77
2022/12/08 10:53:26;;;;;;;6.13;2.72;;;;;;;2.56;100.00;100816.19;4823531;29;20027;-78
2022/12/08 10:56:05;;;;;;;7.20;3.03;;;;;;;2.59;100.00;100824.03;4805040;29;20038;-78
2022/12/08 10:58:41;;;;;;;6.82;2.97;;;;;;;2.57;100.00;100807.50;4835841;29;20038;-78
2022/12/08 11:01:38;;;;;;;6.70;3.00;;;;;;;2.65;100.00;100811.94;4788720;29;20049;-78
2022/12/08 11:04:10;;;;;;;7.15;3.58;;;;;;;2.66;100.00;100818.91;4822900;29;20065;-78
2022/12/08 11:06:40;;;;;;;7.85;3.15;;;;;;;2.66;100.00;100811.91;4809481;29;20098;-77
2022/12/08 11:09:15;;;;;;;3.95;3.25;;;;;;;2.67;100.00;100816.31;4794960;29;20407;-78
2022/12/08 11:11:48;;;;;;;4.05;3.20;;;;;;;2.64;100.00;100807.53;4806542;29;20038;-78
2022/12/08 11:14:26;;;;;;;6.03;3.30;;;;;;;2.65;100.00;100810.19;4825697;29;20043;-78
2022/12/08 11:17:04;;;;;;;4.03;2.78;;;;;;;2.56;100.00;100795.25;4822145;29;20074;-77
2022/12/08 11:19:29;;;;;;;4.32;2.95;;;;;;;2.53;100.00;100807.44;4830630;29;20031;-77
2022/12/08 11:21:55;;;;;;;4.55;3.30;;;;;;;2.51;100.00;100806.53;4821855;29;20094;-77
2022/12/08 11:24:26;;;;;;;5.13;3.08;;;;;;;2.49;100.00;100798.66;4816844;29;20047;-78
2022/12/08 11:27:03;;;;;;;4.93;2.88;;;;;;;2.49;100.00;100798.66;4824405;29;20118;-77
2022/12/08 11:29:32;;;;;;;4.97;3.50;;;;;;;2.49;100.00;100792.56;4841147;29;20057;-77
2022/12/08 11:32:12;;;;;;;4.32;3.20;;;;;;;2.45;100.00;100783.84;4841407;29;20030;-77
2022/12/08 11:34:46;;;;;;;5.57;3.15;;;;;;;2.47;100.00;100787.31;4841117;29;20066;-77
2022/12/08 11:37:21;;;;;;;6.22;3.72;;;;;;;2.43;100.00;100777.72;4809381;29;20129;-77